Terminal Aerodrome Forecast
Issued by NWS Charleston, WV

Current Version | Previous Version | Text Only | Print | Product List | Glossary Off
Versions: 1 2 3 4 5 6 7 8 9 10 11 12 13 14 15 16 17 18 19 20 21 22 23

858
FTUS41 KRLX 211511 AAA
TAFBKW
TAF AMD
KBKW 211511Z 2115/2212 18009KT P6SM BKN040 WS020/20040KT
     FM211700 22010G19KT P6SM VCSH BKN050
     FM212200 26006KT 6SM SHRA VCTS BKN035CB
     FM220200 10003KT 6SM SHRA BKN015
     FM220500 16005KT 3SM BR BKN006=

USA.gov is the U.S. government's official web portal to all federal, state and local government web resources and services.